createdAt,value
2022-08-04T00:00:18.152Z,86.38
2022-08-04T00:01:18.174Z,86.19
2022-08-04T00:02:18.153Z,86.08
2022-08-04T00:03:18.113Z,86.08
2022-08-04T00:04:18.117Z,86.38
2022-08-04T00:05:18.036Z,86.72
2022-08-04T00:06:18.032Z,86.93
2022-08-04T00:07:18.001Z,87.12
2022-08-04T00:08:18.020Z,87.12
2022-08-04T00:09:18.021Z,87.02
2022-08-04T00:10:17.996Z,86.93
2022-08-04T00:11:17.929Z,87.02
2022-08-04T00:12:18.024Z,87.12
2022-08-04T00:13:18.043Z,87.23
2022-08-04T00:14:17.910Z,87.32
2022-08-04T00:15:17.883Z,87.42
2022-08-04T00:16:17.869Z,87.42
2022-08-04T00:17:17.902Z,87.66
2022-08-04T00:18:17.864Z,87.76
2022-08-04T00:19:17.884Z,87.87
2022-08-04T00:20:17.822Z,87.96
2022-08-04T00:21:17.835Z,87.96
2022-08-04T00:22:17.785Z,87.87
2022-08-04T00:23:17.764Z,87.87
2022-08-04T00:24:17.756Z,87.87
2022-08-04T00:25:17.827Z,87.87
2022-08-04T00:26:17.723Z,87.76
2022-08-04T00:27:17.739Z,87.66
2022-08-04T00:28:17.705Z,87.87
2022-08-04T00:29:17.700Z,87.87
2022-08-04T00:30:17.684Z,87.96
2022-08-04T00:31:17.677Z,88.06
2022-08-04T00:32:33.909Z,87.96
2022-08-04T00:33:18.651Z,88.06
2022-08-04T00:34:17.640Z,88.06
2022-08-04T00:35:17.668Z,88.06
2022-08-04T00:36:17.596Z,88.06
2022-08-04T00:37:17.650Z,88.37
2022-08-04T00:38:17.571Z,88.37
2022-08-04T00:39:19.916Z,88.26
2022-08-04T00:40:17.570Z,87.96
2022-08-04T00:41:19.313Z,87.96
2022-08-04T00:42:17.620Z,87.76
2022-08-04T00:43:17.508Z,87.66
2022-08-04T00:44:23.732Z,87.76
2022-08-04T00:45:18.546Z,88.06
2022-08-04T00:46:18.179Z,88.26
2022-08-04T00:47:17.474Z,88.26
2022-08-04T00:48:17.468Z,88.26
2022-08-04T00:49:17.557Z,88.46
2022-08-04T00:50:17.463Z,88.40
2022-08-04T00:51:17.425Z,88.56
2022-08-04T00:52:30.678Z,88.37
2022-08-04T00:53:18.389Z,88.06
2022-08-04T00:54:17.365Z,87.76
2022-08-04T00:55:17.354Z,87.76
2022-08-04T00:56:17.338Z,87.76
2022-08-04T00:57:29.962Z,87.76
2022-08-04T00:58:18.372Z,88.10
2022-08-04T00:59:17.313Z,88.31
2022-08-04T01:00:17.299Z,88.31
2022-08-04T01:01:17.319Z,88.31
2022-08-04T01:02:17.259Z,88.40
2022-08-04T01:03:17.274Z,88.31
2022-08-04T01:04:19.736Z,88.10
2022-08-04T01:05:18.235Z,88.10
2022-08-04T01:06:17.291Z,87.91
2022-08-04T01:07:17.194Z,87.81
2022-08-04T01:08:17.182Z,87.81
2022-08-04T01:09:21.148Z,87.71
2022-08-04T01:10:17.773Z,87.61
2022-08-04T01:11:17.133Z,87.61
2022-08-04T01:12:17.136Z,87.46
2022-08-04T01:13:17.117Z,87.27
2022-08-04T01:14:17.137Z,87.07
2022-08-04T01:15:17.091Z,87.07
2022-08-04T01:16:17.091Z,86.97
2022-08-04T01:17:17.059Z,86.87
2022-08-04T01:18:17.055Z,86.97
2022-08-04T01:19:17.035Z,86.87
2022-08-04T01:20:17.057Z,86.87
2022-08-04T01:21:17.064Z,86.77
2022-08-04T01:22:17.744Z,86.87
2022-08-04T01:23:16.979Z,86.57
2022-08-04T01:24:16.969Z,86.47
2022-08-04T01:25:16.970Z,86.47
2022-08-04T01:26:43.816Z,86.66
2022-08-04T01:27:17.977Z,86.57
2022-08-04T01:28:16.930Z,86.66
2022-08-04T01:29:16.915Z,86.66
2022-08-04T01:30:16.930Z,86.36
2022-08-04T01:31:16.895Z,86.57
2022-08-04T01:32:16.879Z,86.81
2022-08-04T01:33:16.853Z,87.11
2022-08-04T01:34:16.840Z,87.51
2022-08-04T01:35:22.282Z,87.71
2022-08-04T01:36:18.035Z,88.01
2022-08-04T01:37:16.813Z,87.91
2022-08-04T01:38:20.956Z,87.91
2022-08-04T01:39:16.869Z,87.81
2022-08-04T01:40:16.779Z,87.61
2022-08-04T01:41:16.774Z,87.61
2022-08-04T01:42:32.270Z,87.61
2022-08-04T01:43:17.755Z,87.61
2022-08-04T01:44:16.738Z,87.41
2022-08-04T01:45:16.867Z,87.41
2022-08-04T01:46:16.680Z,87.51
2022-08-04T01:47:16.783Z,87.51
2022-08-04T01:48:16.660Z,87.41
2022-08-04T01:49:16.753Z,87.51
2022-08-04T01:50:16.635Z,87.61
2022-08-04T01:51:16.629Z,87.61
2022-08-04T01:52:16.621Z,87.41
2022-08-04T01:53:16.593Z,87.61
2022-08-04T01:54:16.596Z,87.71
2022-08-04T01:55:16.564Z,87.71
2022-08-04T01:56:16.571Z,87.71
2022-08-04T01:57:36.916Z,87.61
2022-08-04T01:58:17.528Z,87.61
2022-08-04T01:59:16.540Z,87.51
2022-08-04T02:00:16.499Z,87.51
2022-08-04T02:01:16.582Z,87.51
2022-08-04T02:02:16.580Z,87.61
2022-08-04T02:03:16.447Z,87.81
2022-08-04T02:04:18.813Z,87.95
2022-08-04T02:05:17.442Z,87.85
2022-08-04T02:06:16.447Z,87.95
2022-08-04T02:07:17.034Z,88.05
2022-08-04T02:08:16.394Z,88.15
2022-08-04T02:09:16.381Z,88.25
2022-08-04T02:10:16.375Z,88.25
2022-08-04T02:11:16.385Z,88.25
2022-08-04T02:12:16.554Z,88.45
2022-08-04T02:13:16.340Z,88.45
2022-08-04T02:14:16.308Z,88.49
2022-08-04T02:15:16.303Z,88.75
2022-08-04T02:16:16.291Z,88.65
2022-08-04T02:17:16.303Z,88.79
2022-08-04T02:18:16.281Z,88.89
2022-08-04T02:19:16.251Z,88.89
2022-08-04T02:20:16.250Z,88.89
2022-08-04T02:21:16.231Z,88.49
2022-08-04T02:22:16.249Z,88.79
2022-08-04T02:23:16.184Z,88.79
2022-08-04T02:24:16.197Z,88.65
2022-08-04T02:25:16.171Z,88.45
2022-08-04T02:26:19.371Z,88.25
2022-08-04T02:27:17.192Z,88.29
2022-08-04T02:28:16.150Z,88.49
2022-08-04T02:29:16.335Z,88.59
2022-08-04T02:30:17.653Z,88.69
2022-08-04T02:31:16.105Z,88.79
2022-08-04T02:32:16.067Z,88.69
2022-08-04T02:33:16.060Z,88.59
2022-08-04T02:34:16.074Z,88.59
2022-08-04T02:35:16.048Z,88.69
2022-08-04T02:36:16.018Z,88.69
2022-08-04T02:37:16.008Z,88.59
2022-08-04T02:38:16.030Z,88.49
2022-08-04T02:39:16.037Z,88.49
2022-08-04T02:40:15.968Z,88.69
2022-08-04T02:41:15.944Z,88.79
2022-08-04T02:42:15.943Z,88.69
2022-08-04T02:43:15.966Z,88.69
2022-08-04T02:44:16.948Z,88.59
2022-08-04T02:45:15.907Z,88.59
2022-08-04T02:46:17.961Z,88.49
2022-08-04T02:47:15.887Z,88.59
2022-08-04T02:48:30.659Z,88.69
2022-08-04T02:49:17.525Z,88.69
2022-08-04T02:50:29.015Z,88.79
2022-08-04T02:51:16.821Z,88.79
2022-08-04T02:52:15.865Z,88.69
2022-08-04T02:53:15.790Z,88.59
2022-08-04T02:54:15.793Z,88.69
2022-08-04T02:55:16.773Z,88.69
2022-08-04T02:56:15.787Z,88.73
2022-08-04T02:57:15.750Z,88.83
2022-08-04T02:58:15.855Z,88.73
2022-08-04T02:59:15.739Z,89.03
2022-08-04T03:00:15.721Z,89.03
2022-08-04T03:01:15.745Z,88.93
2022-08-04T03:02:15.673Z,88.93
2022-08-04T03:03:15.673Z,88.93
2022-08-04T03:04:24.178Z,88.83
2022-08-04T03:05:16.630Z,88.83
2022-08-04T03:06:15.676Z,88.83
2022-08-04T03:07:15.757Z,88.93
2022-08-04T03:08:15.603Z,89.03
2022-08-04T03:09:15.624Z,89.03
2022-08-04T03:10:15.592Z,89.03
2022-08-04T03:11:15.601Z,89.03
2022-08-04T03:12:15.558Z,89.03
2022-08-04T03:13:15.576Z,89.03
2022-08-04T03:14:15.595Z,89.03
2022-08-04T03:15:15.520Z,89.14
2022-08-04T03:16:15.525Z,89.03
2022-08-04T03:17:15.482Z,89.14
2022-08-04T03:18:15.568Z,89.23
2022-08-04T03:19:15.477Z,89.23
2022-08-04T03:20:15.747Z,89.23
2022-08-04T03:21:15.428Z,89.23
2022-08-04T03:22:15.412Z,89.23
2022-08-04T03:23:15.397Z,89.23
2022-08-04T03:24:19.721Z,89.14
2022-08-04T03:25:15.389Z,89.03
2022-08-04T03:26:15.399Z,89.03
2022-08-04T03:27:15.370Z,89.14
2022-08-04T03:28:15.350Z,89.14
2022-08-04T03:29:15.311Z,89.14
2022-08-04T03:30:16.329Z,89.03
2022-08-04T03:31:15.287Z,88.98
2022-08-04T03:32:15.286Z,89.07
2022-08-04T03:33:15.291Z,89.03
2022-08-04T03:34:15.262Z,89.03
2022-08-04T03:35:22.446Z,89.14
2022-08-04T03:36:16.223Z,89.03
2022-08-04T03:37:15.220Z,89.03
2022-08-04T03:38:15.239Z,89.07
2022-08-04T03:39:15.325Z,89.03
2022-08-04T03:40:15.198Z,89.03
2022-08-04T03:41:15.174Z,89.18
2022-08-04T03:42:16.111Z,89.18
2022-08-04T03:43:58.699Z,89.18
2022-08-04T03:44:16.152Z,89.28
2022-08-04T03:45:23.605Z,89.37
2022-08-04T03:46:16.103Z,89.48
2022-08-04T03:47:15.177Z,89.37
2022-08-04T03:48:15.064Z,89.37
2022-08-04T03:49:15.111Z,89.28
2022-08-04T03:50:15.063Z,89.18
2022-08-04T03:51:35.501Z,89.28
2022-08-04T03:52:16.057Z,89.28
2022-08-04T03:53:15.005Z,89.18
2022-08-04T03:54:15.025Z,89.18
2022-08-04T03:55:15.043Z,89.03
2022-08-04T03:56:15.003Z,88.93
2022-08-04T03:57:15.004Z,88.73
2022-08-04T03:58:14.950Z,88.64
2022-08-04T03:59:14.922Z,88.53
2022-08-04T04:00:14.918Z,88.43
2022-08-04T04:01:14.910Z,88.53
2022-08-04T04:02:14.984Z,88.68
2022-08-04T04:03:28.419Z,88.73
2022-08-04T04:04:15.885Z,88.73
2022-08-04T04:05:14.852Z,88.64
2022-08-04T04:06:15.189Z,88.64
2022-08-04T04:07:14.876Z,88.68
2022-08-04T04:08:16.466Z,88.78
2022-08-04T04:09:16.331Z,88.64
2022-08-04T04:10:15.788Z,88.64
2022-08-04T04:11:14.814Z,88.53
2022-08-04T04:12:14.794Z,88.53
2022-08-04T04:13:14.761Z,88.53
2022-08-04T04:14:14.734Z,88.43
2022-08-04T04:15:14.729Z,88.57
2022-08-04T04:16:14.728Z,88.78
2022-08-04T04:17:14.742Z,88.98
2022-08-04T04:18:14.804Z,89.07
2022-08-04T04:19:19.050Z,89.03
2022-08-04T04:20:14.809Z,88.83
2022-08-04T04:21:14.651Z,88.73
2022-08-04T04:22:14.646Z,88.73
2022-08-04T04:23:14.623Z,88.64
2022-08-04T04:24:14.668Z,88.53
2022-08-04T04:25:14.652Z,88.53
2022-08-04T04:26:14.626Z,88.43
2022-08-04T04:27:14.576Z,88.33
2022-08-04T04:28:45.197Z,88.23
2022-08-04T04:29:15.813Z,88.13
2022-08-04T04:30:14.534Z,88.23
2022-08-04T04:31:14.511Z,88.33
2022-08-04T04:32:14.538Z,88.23
2022-08-04T04:33:14.551Z,88.13
2022-08-04T04:34:14.558Z,88.23
2022-08-04T04:35:14.453Z,88.33
2022-08-04T04:36:14.464Z,88.33
2022-08-04T04:37:18.481Z,88.33
2022-08-04T04:38:14.463Z,88.33
2022-08-04T04:39:14.424Z,88.19
2022-08-04T04:40:14.394Z,88.19
2022-08-04T04:41:14.411Z,87.99
2022-08-04T04:42:14.453Z,88.09
2022-08-04T04:43:14.355Z,87.99
2022-08-04T04:44:14.349Z,87.79
2022-08-04T04:45:14.489Z,87.79
2022-08-04T04:46:15.423Z,87.99
2022-08-04T04:47:14.336Z,87.99
2022-08-04T04:48:14.285Z,87.99
2022-08-04T04:49:14.275Z,87.89
2022-08-04T04:50:14.273Z,87.79
2022-08-04T04:51:14.256Z,87.69
2022-08-04T04:52:14.242Z,87.49
2022-08-04T04:53:14.224Z,87.49
2022-08-04T04:54:14.215Z,87.39
2022-08-04T04:55:14.262Z,87.39
2022-08-04T04:56:14.211Z,87.49
2022-08-04T04:57:14.195Z,87.39
2022-08-04T04:58:14.181Z,87.35
2022-08-04T04:59:14.159Z,87.25
2022-08-04T05:00:14.130Z,87.15
2022-08-04T05:01:14.110Z,86.95
2022-08-04T05:02:14.094Z,86.75
2022-08-04T05:03:14.157Z,86.55
2022-08-04T05:04:14.106Z,86.55
2022-08-04T05:05:14.078Z,86.51
2022-08-04T05:06:14.068Z,86.51
2022-08-04T05:07:14.370Z,86.41
2022-08-04T05:08:43.016Z,86.51
2022-08-04T05:09:15.009Z,86.41
2022-08-04T05:10:13.995Z,86.31
2022-08-04T05:11:13.982Z,86.31
2022-08-04T05:14:32.521Z,86.11
2022-08-04T05:14:34.619Z,86.11
2022-08-04T05:14:34.834Z,86.11
2022-08-04T05:15:15.631Z,85.81
2022-08-04T05:16:13.928Z,85.91
2022-08-04T05:17:13.903Z,85.91
2022-08-04T05:18:13.902Z,85.91
2022-08-04T05:19:14.207Z,85.87
2022-08-04T05:20:13.853Z,85.77
2022-08-04T05:21:13.864Z,85.57
2022-08-04T05:22:14.761Z,85.47
2022-08-04T05:23:13.862Z,85.37
2022-08-04T05:24:13.815Z,85.17
2022-08-04T05:25:13.798Z,85.03
2022-08-04T05:26:13.782Z,85.03
2022-08-04T05:27:13.795Z,84.93
2022-08-04T05:28:13.782Z,84.43
2022-08-04T05:29:13.757Z,84.53
2022-08-04T05:30:13.761Z,84.33
2022-08-04T05:31:13.731Z,84.33
2022-08-04T05:32:13.719Z,84.19
2022-08-04T05:33:13.713Z,84.09
2022-08-04T05:34:13.708Z,83.89
2022-08-04T05:35:13.675Z,83.79
2022-08-04T05:36:21.690Z,83.79
2022-08-04T05:37:14.675Z,83.55
2022-08-04T05:38:13.677Z,83.75
2022-08-04T05:39:13.752Z,83.45
2022-08-04T05:40:13.629Z,83.05
2022-08-04T05:41:13.625Z,82.95
2022-08-04T05:42:13.580Z,82.42
2022-08-04T05:43:13.607Z,82.32
2022-08-04T05:44:13.822Z,82.51
2022-08-04T05:45:13.539Z,82.71
2022-08-04T05:46:13.546Z,82.12
2022-08-04T05:47:13.569Z,82.12
2022-08-04T05:48:13.520Z,81.88
2022-08-04T05:49:19.476Z,81.88
2022-08-04T05:50:14.699Z,82.18
2022-08-04T05:51:13.472Z,81.77
2022-08-04T05:52:13.454Z,81.48
2022-08-04T05:53:13.773Z,80.98
2022-08-04T05:54:13.468Z,80.35
2022-08-04T05:55:13.416Z,80.68
2022-08-04T05:56:14.390Z,80.68
2022-08-04T05:57:13.484Z,80.44
2022-08-04T05:58:13.655Z,80.24
2022-08-04T05:59:13.369Z,80.05
2022-08-04T06:00:39.060Z,79.85
2022-08-04T06:01:14.348Z,79.75
2022-08-04T06:02:13.363Z,79.15
2022-08-04T06:03:13.320Z,79.15
2022-08-04T06:04:13.367Z,79.11
2022-08-04T06:05:13.307Z,78.91
2022-08-04T06:06:13.291Z,78.72
2022-08-04T06:07:13.502Z,78.12
2022-08-04T06:08:14.019Z,78.02
2022-08-04T06:09:13.233Z,77.82
2022-08-04T06:10:13.236Z,78.18
2022-08-04T06:11:13.261Z,77.88
2022-08-04T06:12:13.510Z,78.08
2022-08-04T06:13:49.793Z,78.08
2022-08-04T06:14:14.204Z,77.78
2022-08-04T06:15:13.165Z,77.68
2022-08-04T06:16:18.119Z,77.58
2022-08-04T06:18:33.429Z,77.28
2022-08-04T06:18:35.251Z,77.19
2022-08-04T06:20:00.894Z,77.58
2022-08-04T06:20:19.083Z,77.68
2022-08-04T06:21:16.275Z,77.68
2022-08-04T06:22:13.119Z,77.68
2022-08-04T06:23:13.052Z,77.58
2022-08-04T06:24:13.046Z,77.88
2022-08-04T06:25:13.083Z,77.48
2022-08-04T06:26:13.003Z,77.68
2022-08-04T06:27:13.012Z,76.85
2022-08-04T06:28:12.985Z,76.65
2022-08-04T06:29:12.984Z,76.55
2022-08-04T06:30:12.965Z,76.85
2022-08-04T06:32:26.837Z,76.35
2022-08-04T06:32:29.042Z,76.15
2022-08-04T06:33:13.939Z,76.32
2022-08-04T06:34:12.907Z,76.02
2022-08-04T06:35:16.933Z,75.72
2022-08-04T06:36:12.939Z,75.12
2022-08-04T06:37:24.154Z,74.82
2022-08-04T06:38:13.886Z,74.73
2022-08-04T06:39:12.905Z,74.23
2022-08-04T06:40:29.845Z,74.52
2022-08-04T06:41:13.829Z,74.33
2022-08-04T06:42:21.587Z,74.59
2022-08-04T06:43:13.796Z,74.29
2022-08-04T06:44:12.777Z,74.29
2022-08-04T06:45:12.844Z,73.90
2022-08-04T06:46:12.800Z,74.09
2022-08-04T06:47:13.856Z,74.19
2022-08-04T06:48:12.735Z,74.26
2022-08-04T06:49:12.727Z,74.26
2022-08-04T06:51:24.435Z,73.46
2022-08-04T06:51:26.830Z,73.66
2022-08-04T06:52:13.701Z,73.56
2022-08-04T06:53:12.719Z,72.97
2022-08-04T06:54:12.678Z,72.77
2022-08-04T06:55:12.649Z,73.13
2022-08-04T06:56:12.622Z,72.67
2022-08-04T06:57:12.631Z,72.63
2022-08-04T06:58:12.631Z,73.63
2022-08-04T06:59:12.611Z,72.83
2022-08-04T07:00:12.598Z,72.44
2022-08-04T07:01:12.564Z,72.14
2022-08-04T07:02:13.273Z,72.04
2022-08-04T07:03:12.552Z,71.94
2022-08-04T07:04:12.528Z,71.61
2022-08-04T07:05:12.544Z,71.31
2022-08-04T07:06:14.561Z,71.41
2022-08-04T07:07:12.500Z,71.01
2022-08-04T07:08:12.502Z,70.72
2022-08-04T07:09:12.461Z,70.98
2022-08-04T07:10:12.438Z,70.98
2022-08-04T07:11:13.437Z,70.38
2022-08-04T07:12:12.442Z,70.09
2022-08-04T07:13:12.441Z,70.38
2022-08-04T07:14:12.401Z,69.95
2022-08-04T07:15:14.374Z,69.95
2022-08-04T07:16:12.367Z,69.85
2022-08-04T07:17:12.406Z,68.17
2022-08-04T07:18:12.571Z,69.06
2022-08-04T07:19:15.896Z,69.26
2022-08-04T07:20:13.312Z,68.66
2022-08-04T07:21:12.302Z,68.66
2022-08-04T07:22:19.431Z,68.96
2022-08-04T07:23:13.316Z,69.92
2022-08-04T07:24:12.286Z,69.13
2022-08-04T07:25:12.951Z,68.73
2022-08-04T07:26:13.501Z,68.33
2022-08-04T07:27:12.219Z,68.24
2022-08-04T07:28:12.222Z,68.01
2022-08-04T07:29:12.221Z,67.80
2022-08-04T07:30:12.177Z,67.11
2022-08-04T07:31:16.564Z,67.11
2022-08-04T07:32:13.202Z,67.41
2022-08-04T07:33:12.144Z,67.21
2022-08-04T07:34:21.360Z,66.19
2022-08-04T07:36:05.487Z,66.39
2022-08-04T07:36:13.123Z,66.39
2022-08-04T07:37:12.104Z,66.19
2022-08-04T07:38:12.085Z,65.99
2022-08-04T07:39:12.159Z,64.81
2022-08-04T07:40:13.101Z,65.37
2022-08-04T07:42:13.032Z,65.56
2022-08-04T07:43:12.042Z,65.47
2022-08-04T07:44:12.037Z,63.98
2022-08-04T07:45:11.996Z,64.08
2022-08-04T07:46:12.036Z,63.85
2022-08-04T07:47:11.971Z,63.56
2022-08-04T07:48:11.986Z,62.77
2022-08-04T07:49:11.956Z,62.96
2022-08-04T07:50:12.932Z,63.16
2022-08-04T07:51:11.915Z,63.65
2022-08-04T07:52:11.902Z,63.46
2022-08-04T07:53:55.597Z,62.44
2022-08-04T07:54:12.935Z,61.05
2022-08-04T07:55:11.882Z,62.24
2022-08-04T07:56:11.845Z,61.75
2022-08-04T07:57:19.526Z,60.76
2022-08-04T07:58:12.819Z,61.42
2022-08-04T07:59:11.852Z,60.04
2022-08-04T08:00:11.799Z,60.14
2022-08-04T08:01:11.848Z,60.33
2022-08-04T08:02:11.790Z,58.95
2022-08-04T08:03:11.839Z,58.92
2022-08-04T08:04:12.474Z,59.52
2022-08-04T08:05:11.795Z,59.22
2022-08-04T08:06:31.361Z,58.50
2022-08-04T08:07:12.775Z,58.60
2022-08-04T08:08:11.773Z,59.59
2022-08-04T08:09:12.686Z,57.59
2022-08-04T08:10:11.662Z,57.59
2022-08-04T08:11:11.741Z,57.42
2022-08-04T08:12:38.285Z,57.91
2022-08-04T08:13:12.627Z,57.51
2022-08-04T08:14:11.795Z,57.81
2022-08-04T08:15:11.720Z,58.11
2022-08-04T08:16:11.627Z,58.50
2022-08-04T08:17:11.611Z,58.47
2022-08-04T08:18:11.717Z,58.18
2022-08-04T08:19:11.623Z,58.47
2022-08-04T08:20:11.554Z,58.45
2022-08-04T08:21:13.216Z,58.15
2022-08-04T08:22:11.521Z,57.53
2022-08-04T08:23:11.519Z,57.14
2022-08-04T08:24:12.780Z,56.84
2022-08-04T08:25:11.589Z,56.35
2022-08-04T08:26:12.245Z,56.05
2022-08-04T08:27:11.563Z,57.21
2022-08-04T08:28:11.439Z,57.31
2022-08-04T08:29:11.452Z,54.72
2022-08-04T08:30:11.431Z,55.80
2022-08-04T08:31:11.409Z,56.10
2022-08-04T08:32:11.426Z,54.82
2022-08-04T08:33:11.426Z,54.82
2022-08-04T08:34:11.396Z,55.21
2022-08-04T08:35:11.358Z,55.70
2022-08-04T08:36:11.375Z,55.60
2022-08-04T08:37:11.340Z,55.18
2022-08-04T08:38:11.318Z,55.68
2022-08-04T08:39:11.400Z,55.87
2022-08-04T08:40:11.304Z,55.18
2022-08-04T08:41:11.280Z,54.30
2022-08-04T08:42:11.266Z,54.30
2022-08-04T08:44:00.293Z,54.17
2022-08-04T08:44:30.204Z,54.66
2022-08-04T08:45:12.241Z,54.47
2022-08-04T08:46:12.205Z,54.37
2022-08-04T08:47:11.196Z,53.68
2022-08-04T08:48:11.200Z,55.35
2022-08-04T08:49:11.274Z,53.39
2022-08-04T08:50:12.161Z,54.96
2022-08-04T08:51:11.155Z,53.98
2022-08-04T08:52:11.137Z,53.39
2022-08-04T08:53:11.129Z,53.98
2022-08-04T08:54:11.155Z,53.98
2022-08-04T08:55:11.109Z,54.44
2022-08-04T08:56:11.119Z,53.95
2022-08-04T08:57:11.089Z,53.04
2022-08-04T08:58:11.072Z,53.53
2022-08-04T08:59:15.113Z,53.83
2022-08-04T09:00:11.047Z,53.21
2022-08-04T09:01:11.142Z,51.15
2022-08-04T09:02:11.011Z,51.84
2022-08-04T09:03:10.997Z,51.84
2022-08-04T09:04:11.025Z,52.11
2022-08-04T09:05:11.962Z,51.42
2022-08-04T09:06:10.980Z,52.40
2022-08-04T09:07:10.960Z,52.96
2022-08-04T09:08:10.987Z,51.98
2022-08-04T09:09:10.922Z,51.29
2022-08-04T09:10:10.909Z,51.39
2022-08-04T09:11:11.179Z,51.69
2022-08-04T09:12:10.909Z,51.03
2022-08-04T09:13:10.893Z,51.39
2022-08-04T09:14:10.862Z,49.04
2022-08-04T09:15:10.868Z,50.61
2022-08-04T09:16:10.840Z,49.73
2022-08-04T09:17:10.824Z,48.85
2022-08-04T09:18:10.827Z,48.74
2022-08-04T09:19:17.681Z,50.39
2022-08-04T09:20:11.780Z,49.97
2022-08-04T09:21:10.768Z,49.58
2022-08-04T09:22:12.661Z,50.27
2022-08-04T09:23:10.767Z,49.09
2022-08-04T09:24:35.118Z,48.21
2022-08-04T09:25:11.721Z,49.29
2022-08-04T09:26:10.747Z,49.77
2022-08-04T09:27:10.703Z,48.60
2022-08-04T09:28:10.704Z,49.19
2022-08-04T09:29:10.704Z,49.85
2022-08-04T09:30:10.665Z,49.55
2022-08-04T09:31:10.657Z,47.89
2022-08-04T09:32:10.663Z,47.79
2022-08-04T09:33:10.628Z,48.38
2022-08-04T09:34:10.624Z,47.60
2022-08-04T09:35:15.393Z,47.79
2022-08-04T09:36:11.647Z,48.28
2022-08-04T09:37:10.588Z,47.11
2022-08-04T09:38:10.566Z,46.42
2022-08-04T09:39:10.624Z,47.08
2022-08-04T09:40:14.510Z,46.79
2022-08-04T09:41:20.963Z,48.55
2022-08-04T09:42:11.521Z,47.87
2022-08-04T09:43:10.510Z,44.05
2022-08-04T09:44:48.912Z,44.73
2022-08-04T09:45:15.610Z,45.34
2022-08-04T09:46:11.468Z,45.73
2022-08-04T09:47:10.483Z,46.03
2022-08-04T09:48:10.466Z,47.30
2022-08-04T09:49:10.425Z,47.08
2022-08-04T09:50:10.432Z,45.79
2022-08-04T09:51:10.460Z,46.28
2022-08-04T09:52:10.400Z,46.28
2022-08-04T09:53:11.086Z,46.26
2022-08-04T09:54:10.401Z,45.30
2022-08-04T09:55:11.369Z,46.84
2022-08-04T09:56:10.372Z,46.06
2022-08-04T09:57:10.339Z,45.57
2022-08-04T09:58:10.359Z,46.65
2022-08-04T09:59:10.300Z,46.84
2022-08-04T10:00:10.315Z,46.43
2022-08-04T10:01:10.266Z,46.50
2022-08-04T10:02:10.260Z,46.21
2022-08-04T10:03:10.304Z,45.82
2022-08-04T10:04:10.252Z,47.28
2022-08-04T10:05:10.289Z,46.68
2022-08-04T10:06:10.218Z,45.61
2022-08-04T10:07:10.210Z,45.70
2022-08-04T10:08:16.198Z,45.90
2022-08-04T10:09:15.078Z,45.82
2022-08-04T10:10:10.177Z,45.33
2022-08-04T10:11:12.587Z,46.48
2022-08-04T10:12:10.191Z,46.78
2022-08-04T10:13:10.135Z,46.00
2022-08-04T10:14:10.222Z,45.92
2022-08-04T10:15:10.124Z,46.60
2022-08-04T10:16:10.098Z,47.09
2022-08-04T10:17:10.770Z,46.41
2022-08-04T10:18:10.071Z,46.31
2022-08-04T10:19:10.077Z,45.43
2022-08-04T10:20:10.040Z,44.65
2022-08-04T10:21:15.234Z,43.28
2022-08-04T10:22:29.253Z,44.35
2022-08-04T10:23:12.270Z,44.06
2022-08-04T10:24:10.000Z,44.94
2022-08-04T10:25:37.464Z,45.94
2022-08-04T10:26:11.059Z,45.06
2022-08-04T10:27:09.950Z,44.65
2022-08-04T10:28:10.005Z,45.26
2022-08-04T10:29:10.139Z,45.45
2022-08-04T10:30:09.922Z,45.04
2022-08-04T10:31:09.926Z,44.14
2022-08-04T10:32:09.913Z,43.75
2022-08-04T10:33:09.896Z,44.45
2022-08-04T10:34:09.905Z,44.06
2022-08-04T10:35:09.852Z,45.26
2022-08-04T10:36:09.868Z,45.06
2022-08-04T10:37:09.837Z,45.06
2022-08-04T10:38:09.817Z,44.87
2022-08-04T10:39:12.269Z,45.45
2022-08-04T10:40:10.856Z,44.26
2022-08-04T10:41:09.789Z,45.12
2022-08-04T10:42:09.765Z,44.92
2022-08-04T10:43:20.859Z,45.46
2022-08-04T10:44:10.761Z,44.09
2022-08-04T10:45:09.741Z,45.54
2022-08-04T10:46:09.737Z,43.85
2022-08-04T10:47:09.728Z,43.74
2022-08-04T10:48:10.607Z,43.54
2022-08-04T10:49:09.730Z,43.35
2022-08-04T10:50:09.676Z,43.64
2022-08-04T10:51:09.673Z,43.47
2022-08-04T10:52:09.704Z,42.79
2022-08-04T10:53:09.868Z,43.15
2022-08-04T10:54:09.644Z,42.28
2022-08-04T10:55:09.637Z,44.13
2022-08-04T10:56:09.613Z,42.45
2022-08-04T10:57:09.693Z,40.99
2022-08-04T10:58:09.584Z,42.24
2022-08-04T10:59:09.601Z,41.63
2022-08-04T11:00:09.585Z,41.24
2022-08-04T11:01:09.551Z,40.85
2022-08-04T11:02:14.930Z,39.90
2022-08-04T11:03:10.736Z,40.97
2022-08-04T11:04:09.530Z,40.88
2022-08-04T11:05:09.512Z,39.80
2022-08-04T11:06:09.490Z,40.48
2022-08-04T11:07:09.478Z,40.31
2022-08-04T11:08:12.790Z,40.23
2022-08-04T11:09:13.978Z,40.72
2022-08-04T11:10:10.445Z,40.60
2022-08-04T11:11:13.233Z,41.26
2022-08-04T11:12:09.420Z,38.93
2022-08-04T11:13:30.100Z,38.93
2022-08-04T11:14:10.400Z,40.31
2022-08-04T11:15:09.383Z,38.65
2022-08-04T11:16:09.369Z,40.01
2022-08-04T11:17:09.362Z,40.09
2022-08-04T11:18:16.296Z,39.51
2022-08-04T11:19:09.342Z,39.98
2022-08-04T11:20:33.483Z,39.96
2022-08-04T11:21:10.392Z,38.77
2022-08-04T11:22:09.295Z,37.22
2022-08-04T11:23:09.290Z,37.45
2022-08-04T11:24:09.262Z,38.46
2022-08-04T11:25:09.309Z,39.24
2022-08-04T11:26:09.240Z,38.85
2022-08-04T11:27:09.244Z,38.65
2022-08-04T11:28:09.222Z,38.18
2022-08-04T11:29:09.201Z,38.48
2022-08-04T11:30:09.214Z,38.49
2022-08-04T11:31:09.249Z,38.79
2022-08-04T11:32:09.198Z,39.18
2022-08-04T11:33:09.167Z,39.57
2022-08-04T11:34:09.379Z,37.71
2022-08-04T11:35:09.140Z,37.52
2022-08-04T11:36:09.136Z,39.57
2022-08-04T11:37:14.228Z,38.77
2022-08-04T11:38:10.142Z,37.12
2022-08-04T11:39:09.167Z,37.12
2022-08-04T11:40:09.096Z,36.80
2022-08-04T11:41:09.085Z,36.47
2022-08-04T11:42:09.134Z,36.30
2022-08-04T11:43:09.036Z,36.10
2022-08-04T11:44:12.457Z,35.61
2022-08-04T11:45:09.062Z,36.40
2022-08-04T11:46:09.117Z,36.41
2022-08-04T11:47:09.010Z,35.53
2022-08-04T11:48:09.012Z,35.94
2022-08-04T11:49:09.033Z,35.47
2022-08-04T11:50:09.041Z,35.00
2022-08-04T11:51:09.489Z,35.00
2022-08-04T11:52:08.950Z,35.88
2022-08-04T11:53:08.973Z,35.30
2022-08-04T11:54:08.902Z,36.00
2022-08-04T11:55:08.906Z,35.61
2022-08-04T11:56:11.011Z,36.00
2022-08-04T11:57:08.904Z,36.27
2022-08-04T11:58:08.862Z,35.47
2022-08-04T11:59:08.924Z,34.48
2022-08-04T12:00:08.904Z,34.19
2022-08-04T12:01:08.825Z,35.06
2022-08-04T12:02:08.865Z,35.26
2022-08-04T12:03:08.848Z,35.46
2022-08-04T12:04:08.798Z,35.36
2022-08-04T12:05:08.816Z,34.78
2022-08-04T12:06:08.781Z,35.73
2022-08-04T12:07:30.118Z,35.61
2022-08-04T12:08:09.757Z,35.71
2022-08-04T12:09:10.343Z,35.99
2022-08-04T12:10:08.797Z,34.53
2022-08-04T12:11:08.699Z,34.82
2022-08-04T12:12:08.704Z,34.24
2022-08-04T12:13:08.668Z,33.65
2022-08-04T12:14:08.672Z,34.05
2022-08-04T12:15:08.704Z,33.73
2022-08-04T12:16:08.733Z,34.11
2022-08-04T12:17:08.637Z,33.62
2022-08-04T12:18:08.684Z,33.62
2022-08-04T12:19:08.615Z,34.42
2022-08-04T12:20:31.544Z,33.85
2022-08-04T12:21:09.648Z,34.74
2022-08-04T12:22:08.611Z,34.56
2022-08-04T12:23:08.572Z,35.16
2022-08-04T12:24:08.631Z,35.46
2022-08-04T12:25:08.567Z,35.46
2022-08-04T12:26:08.552Z,35.55
2022-08-04T12:27:08.566Z,34.39
2022-08-04T12:28:08.523Z,34.56
2022-08-04T12:29:10.532Z,34.47
2022-08-04T12:30:59.965Z,34.84
2022-08-04T12:31:11.594Z,35.44
2022-08-04T12:32:08.463Z,35.53
2022-08-04T12:33:08.514Z,35.15
2022-08-04T12:34:08.444Z,35.53
2022-08-04T12:35:08.449Z,34.47
2022-08-04T12:36:11.138Z,34.66
2022-08-04T12:37:08.393Z,35.53
2022-08-04T12:38:08.402Z,34.48
2022-08-04T12:39:08.457Z,35.26
2022-08-04T12:40:30.357Z,35.34
2022-08-04T12:41:09.383Z,34.35
2022-08-04T12:42:08.352Z,34.69
2022-08-04T12:43:08.320Z,36.10
2022-08-04T12:44:10.731Z,33.75
2022-08-04T12:45:09.324Z,32.67
2022-08-04T12:46:08.318Z,32.54
2022-08-04T12:47:36.254Z,30.99
2022-08-04T12:48:09.276Z,31.68
2022-08-04T12:49:08.258Z,31.78
2022-08-04T12:50:08.267Z,31.04
2022-08-04T12:51:08.329Z,31.21
2022-08-04T12:52:09.669Z,31.59
2022-08-04T12:53:08.883Z,32.29